Time;durP1;ratioP1;P1;durP2;ratioP2;P2;SDS_P1;SDS_P2;PMS_P1;PMS_P2;Temp;Humidity;BMP_temperature;BMP_pressure;BME280_temperature;BME280_humidity;BME280_pressure;Samples;Min_cycle;Max_cycle;Signal;HPM_P1;HPM_P2
2021/10/25 00:00:04;;;;;;;24.02;12.30;;;;;;;8.13;100.00;101860.66;4948021;28;20134;-70
2021/10/25 00:02:32;;;;;;;23.00;12.90;;;;;;;8.18;100.00;101869.50;4951911;28;20129;-70
2021/10/25 00:05:00;;;;;;;24.25;12.80;;;;;;;8.23;100.00;101861.50;4948927;28;20055;-70
2021/10/25 00:07:28;;;;;;;23.70;12.68;;;;;;;8.23;100.00;101859.72;4949756;28;20419;-70
2021/10/25 00:09:56;;;;;;;22.63;12.52;;;;;;;8.24;100.00;101857.97;4949771;28;20065;-71
2021/10/25 00:12:25;;;;;;;20.98;12.00;;;;;;;8.23;100.00;101858.84;4949822;28;20564;-71
2021/10/25 00:14:54;;;;;;;18.85;11.40;;;;;;;8.25;100.00;101849.06;4952391;28;20508;-71
2021/10/25 00:17:23;;;;;;;20.50;11.18;;;;;;;8.25;100.00;101833.13;4950128;28;20335;-70
2021/10/25 00:19:51;;;;;;;20.55;11.15;;;;;;;8.24;100.00;101847.31;4951664;28;20250;-71
2021/10/25 00:22:20;;;;;;;20.23;11.25;;;;;;;8.26;100.00;101847.28;4949428;28;20751;-73
2021/10/25 00:24:47;;;;;;;25.05;12.40;;;;;;;8.24;100.00;101836.69;4954043;28;20474;-73
2021/10/25 00:27:15;;;;;;;19.67;11.73;;;;;;;8.26;100.00;101841.97;4949092;28;20074;-75
2021/10/25 00:29:43;;;;;;;25.88;13.50;;;;;;;8.30;100.00;101841.94;4952938;28;20130;-75
2021/10/25 00:32:11;;;;;;;22.42;12.23;;;;;;;8.28;100.00;101829.56;4951446;28;20453;-75
2021/10/25 00:34:40;;;;;;;21.48;11.65;;;;;;;8.33;100.00;101838.41;4950737;28;20051;-75
2021/10/25 00:37:08;;;;;;;17.80;10.70;;;;;;;8.35;100.00;101832.16;4950762;28;20286;-69
2021/10/25 00:39:36;;;;;;;21.83;12.30;;;;;;;8.37;100.00;101826.84;4948409;28;20105;-70
2021/10/25 00:42:04;;;;;;;21.67;11.82;;;;;;;8.37;100.00;101826.84;4950689;28;20063;-70
2021/10/25 00:44:33;;;;;;;20.90;11.13;;;;;;;8.40;100.00;101826.81;4954345;28;20074;-70
2021/10/25 00:47:00;;;;;;;20.30;11.35;;;;;;;8.43;100.00;101826.84;4951126;28;20073;-70
2021/10/25 00:49:28;;;;;;;19.60;11.10;;;;;;;8.40;100.00;101827.69;4950887;28;20559;-70
2021/10/25 00:51:58;;;;;;;24.58;13.32;;;;;;;8.44;100.00;101833.03;4949389;28;20053;-70
2021/10/25 00:54:26;;;;;;;19.70;12.32;;;;;;;8.49;100.00;101823.25;4943752;28;20050;-70
2021/10/25 00:56:54;;;;;;;22.58;11.50;;;;;;;8.50;100.00;101825.03;4948493;28;20436;-70
2021/10/25 00:59:22;;;;;;;21.95;11.98;;;;;;;8.51;99.95;101826.75;4949220;28;21510;-70
2021/10/25 01:01:50;;;;;;;19.02;10.95;;;;;;;8.53;100.00;101824.97;4951459;28;20046;-70
2021/10/25 01:04:20;;;;;;;22.35;11.88;;;;;;;8.52;100.00;101829.41;4947372;28;20051;-70
2021/10/25 01:06:51;;;;;;;20.13;11.27;;;;;;;8.54;100.00;101826.75;4949016;28;20495;-70
2021/10/25 01:09:21;;;;;;;23.48;12.25;;;;;;;8.54;99.84;101827.63;4949033;28;20058;-70
2021/10/25 01:11:50;;;;;;;20.25;12.02;;;;;;;8.55;99.95;101826.75;4949279;28;20042;-70
2021/10/25 01:14:18;;;;;;;23.08;12.35;;;;;;;8.53;100.00;101832.94;4946105;28;20188;-70
2021/10/25 01:16:47;;;;;;;22.25;12.93;;;;;;;8.52;100.00;101828.53;4950073;28;20069;-70
2021/10/25 01:19:16;;;;;;;18.65;10.88;;;;;;;8.53;100.00;101840.94;4950624;28;20066;-70
2021/10/25 01:21:45;;;;;;;20.02;11.77;;;;;;;8.56;100.00;101831.19;4949653;28;20395;-70
2021/10/25 01:24:13;;;;;;;22.92;12.20;;;;;;;8.56;100.00;101838.25;4945493;28;20062;-70
2021/10/25 01:26:41;;;;;;;22.13;12.15;;;;;;;8.51;100.00;101830.34;4948643;28;20070;-70
2021/10/25 01:29:09;;;;;;;23.30;12.20;;;;;;;8.57;99.97;101829.38;4952738;28;20322;-70
2021/10/25 01:31:37;;;;;;;21.30;11.70;;;;;;;8.55;99.90;101826.75;4952692;28;20057;-71
2021/10/25 01:34:05;;;;;;;23.80;13.25;;;;;;;8.56;100.00;101825.84;4948455;28;20550;-71
2021/10/25 01:36:33;;;;;;;23.58;12.10;;;;;;;8.55;100.00;101829.41;4944970;28;20348;-71
2021/10/25 01:39:03;;;;;;;21.95;11.82;;;;;;;8.57;99.96;101818.75;4945873;28;20047;-68
2021/10/25 01:41:31;;;;;;;27.67;12.02;;;;;;;8.57;100.00;101824.06;4949156;28;20047;-70
2021/10/25 01:43:59;;;;;;;23.13;12.43;;;;;;;8.57;100.00;101822.28;4930735;28;20126;-71
2021/10/25 01:46:27;;;;;;;21.48;11.25;;;;;;;8.57;100.00;101811.63;4934405;28;20039;-69
2021/10/25 01:48:55;;;;;;;19.35;10.48;;;;;;;8.58;100.00;101821.41;4934454;28;20051;-69
2021/10/25 01:51:24;;;;;;;22.75;11.80;;;;;;;8.58;100.00;101825.81;4931855;28;20051;-71
2021/10/25 01:53:52;;;;;;;20.85;12.20;;;;;;;8.58;100.00;101816.06;4925968;28;20340;-71
2021/10/25 01:56:22;;;;;;;21.42;10.50;;;;;;;8.60;100.00;101813.41;4935136;28;20051;-69
2021/10/25 01:58:50;;;;;;;19.77;11.85;;;;;;;8.62;100.00;101813.41;4933938;28;20063;-71
2021/10/25 02:01:21;;;;;;;23.60;12.05;;;;;;;8.64;100.00;101811.59;4934940;28;20058;-71
2021/10/25 02:03:50;;;;;;;21.00;11.48;;;;;;;8.72;100.00;101807.97;4934117;28;20259;-71
2021/10/25 02:06:18;;;;;;;20.20;10.57;;;;;;;8.70;99.91;101806.19;4935299;28;20542;-71
2021/10/25 02:08:46;;;;;;;21.70;11.93;;;;;;;8.72;100.00;101804.44;4931115;28;20077;-69
2021/10/25 02:11:15;;;;;;;23.00;11.18;;;;;;;8.71;100.00;101800.88;4932474;28;20126;-68
2021/10/25 02:13:45;;;;;;;22.15;11.30;;;;;;;8.73;100.00;101804.41;4928211;28;20054;-69
2021/10/25 02:16:13;;;;;;;20.20;11.55;;;;;;;8.74;100.00;101799.97;4932887;28;20567;-68
2021/10/25 02:18:42;;;;;;;19.52;10.70;;;;;;;8.75;100.00;101797.31;4939397;28;20078;-70
2021/10/25 02:21:11;;;;;;;22.48;11.95;;;;;;;8.79;100.00;101795.50;4934607;28;20086;-70
2021/10/25 02:23:39;;;;;;;19.55;10.93;;;;;;;8.79;100.00;101788.38;4934853;28;20071;-69
2021/10/25 02:26:07;;;;;;;17.17;10.73;;;;;;;8.82;100.00;101795.47;4933239;28;20071;-68
2021/10/25 02:28:35;;;;;;;17.30;10.13;;;;;;;8.83;100.00;101789.22;4935023;28;20061;-70
2021/10/25 02:31:05;;;;;;;19.02;10.35;;;;;;;8.83;100.00;101793.69;4937158;28;20103;-70
2021/10/25 02:33:33;;;;;;;19.67;10.43;;;;;;;8.86;100.00;101788.34;4936640;28;20102;-69
2021/10/25 02:36:05;;;;;;;19.52;11.82;;;;;;;8.86;100.00;101778.56;4932891;28;20476;-70
2021/10/25 02:38:33;;;;;;;18.92;10.05;;;;;;;8.88;100.00;101778.56;4934807;28;20059;-68
2021/10/25 02:41:01;;;;;;;16.55;10.43;;;;;;;8.88;100.00;101774.09;4933610;28;20050;-71
2021/10/25 02:43:29;;;;;;;19.92;10.85;;;;;;;8.94;100.00;101776.72;4931785;28;20110;-70
2021/10/25 02:45:57;;;;;;;20.77;12.05;;;;;;;8.97;100.00;101781.09;4936049;28;20058;-71
2021/10/25 02:48:26;;;;;;;21.25;11.52;;;;;;;9.01;100.00;101780.19;4931519;28;20504;-71
2021/10/25 02:50:55;;;;;;;21.65;10.32;;;;;;;8.99;100.00;101776.66;4937097;28;20047;-69
2021/10/25 02:53:24;;;;;;;20.30;10.00;;;;;;;9.00;100.00;101780.19;4930753;28;20077;-71
2021/10/25 02:55:52;;;;;;;21.45;11.18;;;;;;;9.02;100.00;101773.06;4933272;28;20051;-70
2021/10/25 02:58:21;;;;;;;21.58;10.50;;;;;;;9.05;100.00;101767.72;4936938;28;20051;-71
2021/10/25 03:00:49;;;;;;;19.30;9.90;;;;;;;9.04;100.00;101772.19;4935695;28;20047;-71
2021/10/25 03:03:21;;;;;;;19.35;11.00;;;;;;;9.02;100.00;101770.41;4932635;28;20058;-70
2021/10/25 03:05:50;;;;;;;19.33;11.90;;;;;;;9.03;100.00;101764.22;4936660;28;20102;-72
2021/10/25 03:08:18;;;;;;;18.40;10.55;;;;;;;9.02;100.00;101763.31;4933319;28;20074;-70
2021/10/25 03:10:46;;;;;;;20.15;10.73;;;;;;;9.03;100.00;101766.88;4934328;28;20747;-70
2021/10/25 03:13:14;;;;;;;19.42;11.25;;;;;;;9.03;100.00;101764.22;4930133;28;20075;-70
2021/10/25 03:15:42;;;;;;;23.15;12.57;;;;;;;9.02;100.00;101762.44;4932089;28;20162;-70
2021/10/25 03:18:13;;;;;;;24.17;11.88;;;;;;;9.00;100.00;101762.44;4934423;28;20063;-70
2021/10/25 03:20:44;;;;;;;21.30;12.15;;;;;;;8.98;100.00;101762.47;4930436;28;20047;-71
2021/10/25 03:23:13;;;;;;;18.85;11.55;;;;;;;8.99;100.00;101760.69;4932634;28;20051;-71
2021/10/25 03:25:41;;;;;;;23.67;13.13;;;;;;;8.94;100.00;101763.41;4937769;28;20470;-70
2021/10/25 03:28:09;;;;;;;18.77;12.15;;;;;;;8.94;100.00;101759.88;4931725;28;20118;-71
2021/10/25 03:30:37;;;;;;;23.08;13.07;;;;;;;8.93;100.00;101761.63;4932977;28;20142;-70
2021/10/25 03:33:05;;;;;;;20.45;13.00;;;;;;;8.94;100.00;101758.06;4933737;28;20585;-71
2021/10/25 03:35:33;;;;;;;20.48;11.88;;;;;;;8.96;100.00;101756.28;4929622;28;20138;-68
2021/10/25 03:38:01;;;;;;;21.65;12.65;;;;;;;8.95;100.00;101754.50;4932961;28;20355;-68
2021/10/25 03:40:31;;;;;;;22.05;12.13;;;;;;;8.95;100.00;101757.16;4936728;28;20535;-71
2021/10/25 03:42:59;;;;;;;23.75;13.05;;;;;;;8.93;100.00;101766.94;4930549;28;20051;-68
2021/10/25 03:45:31;;;;;;;24.55;13.05;;;;;;;8.94;100.00;101757.19;4933103;28;20055;-73
2021/10/25 03:48:04;;;;;;;22.50;14.65;;;;;;;8.94;100.00;101751.88;4932500;28;20138;-73
2021/10/25 03:50:34;;;;;;;23.25;13.10;;;;;;;8.92;100.00;101754.56;4932167;28;21038;-71
2021/10/25 03:53:06;;;;;;;26.13;13.00;;;;;;;8.90;100.00;101747.47;4928805;28;22054;-68
2021/10/25 03:55:40;;;;;;;22.10;13.48;;;;;;;8.92;100.00;101748.31;4931355;28;20054;-69
2021/10/25 03:58:33;;;;;;;30.45;14.50;;;;;;;8.92;100.00;101751.91;4934087;28;20619;-68
2021/10/25 04:04:10;;;;;;;28.30;13.27;;;;;;;8.89;100.00;101749.25;4907565;28;20189;-70
2021/10/25 04:26:18;;;;;;;30.10;16.10;;;;;;;8.95;100.00;101762.47;4932297;28;20094;-73
2021/10/25 04:28:47;;;;;;;29.75;15.63;;;;;;;8.95;100.00;101757.16;4932417;28;20078;-73
2021/10/25 04:31:15;;;;;;;26.88;15.02;;;;;;;8.98;100.00;101756.25;4931019;28;20062;-72
2021/10/25 04:33:43;;;;;;;26.77;15.73;;;;;;;9.00;100.00;101758.91;4934726;28;20161;-73
2021/10/25 04:36:11;;;;;;;26.52;14.05;;;;;;;9.02;100.00;101762.44;4930645;28;20063;-73
2021/10/25 04:38:39;;;;;;;28.02;15.90;;;;;;;9.05;100.00;101759.75;4932388;28;20125;-72
2021/10/25 04:41:07;;;;;;;33.28;18.90;;;;;;;9.10;100.00;101765.91;4930482;28;20110;-69
2021/10/25 04:43:35;;;;;;;31.42;17.65;;;;;;;9.09;100.00;101749.03;4934663;28;20134;-69
2021/10/25 04:46:05;;;;;;;28.38;16.95;;;;;;;9.14;100.00;101749.88;4930510;28;20513;-69
2021/10/25 04:48:33;;;;;;;31.60;17.73;;;;;;;9.12;100.00;101745.44;4933622;28;20406;-71
2021/10/25 04:51:01;;;;;;;32.28;18.88;;;;;;;9.16;100.00;101755.19;4932635;28;20055;-71
2021/10/25 04:53:30;;;;;;;32.95;18.33;;;;;;;9.13;100.00;101748.09;4926832;28;20062;-71
2021/10/25 04:55:58;;;;;;;38.38;20.52;;;;;;;9.16;100.00;101747.19;4930881;28;20051;-71
2021/10/25 04:58:27;;;;;;;37.42;20.75;;;;;;;9.13;100.00;101750.75;4930888;28;20055;-70
2021/10/25 05:00:55;;;;;;;43.25;21.17;;;;;;;9.17;100.00;101738.28;4933703;28;20069;-75
2021/10/25 05:03:27;;;;;;;42.10;22.50;;;;;;;9.17;100.00;101748.94;4930813;28;20047;-74
2021/10/25 05:05:57;;;;;;;37.53;20.08;;;;;;;9.17;100.00;101738.28;4933517;28;20214;-73
2021/10/25 05:08:28;;;;;;;42.10;22.40;;;;;;;9.16;100.00;101741.88;4935609;28;20328;-73
2021/10/25 05:10:59;;;;;;;36.67;20.88;;;;;;;9.21;100.00;101741.78;4932185;28;20627;-73
2021/10/25 05:13:27;;;;;;;39.35;20.48;;;;;;;9.20;100.00;101742.72;4929706;28;20508;-73
2021/10/25 05:15:55;;;;;;;37.00;19.83;;;;;;;9.16;100.00;101741.88;4931608;28;20048;-73
2021/10/25 05:18:24;;;;;;;41.05;21.50;;;;;;;9.16;100.00;101740.09;4932580;28;20158;-73
2021/10/25 05:20:53;;;;;;;36.88;19.50;;;;;;;9.18;100.00;101748.06;4932922;28;20106;-73
2021/10/25 05:23:21;;;;;;;35.30;19.00;;;;;;;9.16;100.00;101739.22;4933857;28;20052;-74
2021/10/25 05:25:50;;;;;;;35.97;20.05;;;;;;;9.12;100.00;101732.13;4926917;28;20079;-74
2021/10/25 05:28:18;;;;;;;33.80;19.33;;;;;;;9.11;100.00;101736.59;4933978;28;20142;-74
2021/10/25 05:30:46;;;;;;;35.33;18.58;;;;;;;9.10;100.00;101731.28;4931093;28;20507;-73
2021/10/25 05:33:14;;;;;;;35.10;17.83;;;;;;;9.12;100.00;101729.47;4929114;28;20071;-73
2021/10/25 05:35:42;;;;;;;31.00;18.00;;;;;;;9.10;100.00;101736.59;4934020;28;21610;-73
2021/10/25 05:38:13;;;;;;;32.40;17.70;;;;;;;9.09;100.00;101730.41;4937179;28;20512;-73
2021/10/25 05:40:41;;;;;;;33.92;18.42;;;;;;;9.07;100.00;101726.84;4935358;28;20111;-73
2021/10/25 05:43:09;;;;;;;32.42;18.33;;;;;;;9.08;100.00;101727.75;4934783;28;20059;-72
2021/10/25 05:45:37;;;;;;;26.58;14.88;;;;;;;9.10;100.00;101721.50;4935248;28;20118;-73
2021/10/25 05:48:05;;;;;;;29.77;16.88;;;;;;;9.09;100.00;101722.44;4935723;28;20138;-72
2021/10/25 05:50:33;;;;;;;30.73;17.05;;;;;;;9.08;100.00;101717.97;4934142;28;20363;-73
2021/10/25 05:53:02;;;;;;;28.98;16.75;;;;;;;9.07;100.00;101718.88;4933568;28;20150;-72
2021/10/25 05:55:32;;;;;;;31.23;17.42;;;;;;;9.07;100.00;101724.19;4930075;28;20059;-72
2021/10/25 05:58:00;;;;;;;32.22;18.50;;;;;;;9.09;100.00;101721.50;4938936;28;20453;-72
2021/10/25 06:00:31;;;;;;;32.45;18.55;;;;;;;9.07;100.00;101715.34;4935608;28;20134;-73
2021/10/25 06:02:59;;;;;;;33.15;18.25;;;;;;;9.06;100.00;101718.88;4931504;28;20142;-73
2021/10/25 06:05:31;;;;;;;28.48;16.58;;;;;;;9.08;100.00;101711.78;4934149;28;20063;-72
2021/10/25 06:07:59;;;;;;;30.67;17.50;;;;;;;9.05;100.00;101714.47;4938787;28;20500;-68
2021/10/25 06:10:30;;;;;;;31.08;17.70;;;;;;;9.02;100.00;101712.72;4934556;28;20051;-69
2021/10/25 06:13:03;;;;;;;28.45;16.33;;;;;;;9.04;100.00;101728.69;4931563;28;20051;-69
2021/10/25 06:15:37;;;;;;;25.90;14.75;;;;;;;9.05;100.00;101719.81;4933165;28;20059;-68
2021/10/25 06:18:08;;;;;;;32.20;16.95;;;;;;;9.05;100.00;101714.47;4932423;28;20150;-68
2021/10/25 06:20:38;;;;;;;25.02;14.90;;;;;;;9.01;100.00;101723.38;4931863;28;20491;-68
2021/10/25 06:23:10;;;;;;;28.90;16.90;;;;;;;8.96;100.00;101723.47;4933716;28;20138;-68
2021/10/25 06:25:39;;;;;;;26.33;16.17;;;;;;;8.96;100.00;101729.66;4937184;28;20051;-68
2021/10/25 06:28:09;;;;;;;27.95;16.08;;;;;;;8.96;100.00;101718.13;4932561;28;20500;-69
2021/10/25 06:30:38;;;;;;;27.75;16.58;;;;;;;8.92;100.00;101719.94;4933770;28;20055;-68
2021/10/25 06:33:07;;;;;;;31.02;15.80;;;;;;;8.91;100.00;101712.84;4932135;28;20051;-68
2021/10/25 06:35:35;;;;;;;30.42;15.90;;;;;;;8.90;100.00;101715.53;4932613;28;20130;-69
2021/10/25 06:38:08;;;;;;;29.70;16.23;;;;;;;8.93;100.00;101719.03;4931373;28;20142;-72
2021/10/25 06:40:48;;;;;;;30.15;17.13;;;;;;;8.96;100.00;101721.66;4935481;28;20310;-71
2021/10/25 06:43:17;;;;;;;32.72;18.00;;;;;;;8.97;100.00;101722.53;4932115;28;20114;-72
2021/10/25 06:45:47;;;;;;;27.25;16.02;;;;;;;9.01;100.00;101729.63;4935242;28;20595;-72
2021/10/25 06:48:15;;;;;;;31.33;16.00;;;;;;;8.98;100.00;101725.19;4927602;28;20125;-71
2021/10/25 06:50:43;;;;;;;31.95;16.60;;;;;;;9.02;100.00;101730.47;4935394;28;20591;-71
2021/10/25 06:53:12;;;;;;;28.85;15.95;;;;;;;9.04;100.00;101721.59;4927054;28;20065;-71
2021/10/25 06:55:40;;;;;;;29.98;16.70;;;;;;;9.03;100.00;101724.28;4932503;28;20070;-71
2021/10/25 06:58:08;;;;;;;30.20;15.95;;;;;;;9.04;100.00;101724.25;4932772;28;20055;-69
2021/10/25 07:00:37;;;;;;;29.55;16.13;;;;;;;9.06;100.00;101729.53;4937005;28;20078;-69
2021/10/25 07:03:07;;;;;;;26.35;14.68;;;;;;;9.07;100.00;101726.84;4932607;28;20442;-69
2021/10/25 07:05:37;;;;;;;31.27;16.50;;;;;;;9.08;100.00;101725.09;4932864;28;20051;-69
2021/10/25 07:08:06;;;;;;;28.13;15.63;;;;;;;9.11;100.00;101731.25;4936584;28;20102;-69
2021/10/25 07:10:35;;;;;;;27.83;14.77;;;;;;;9.13;100.00;101733.91;4931600;28;20141;-69
2021/10/25 07:13:19;;;;;;;30.10;15.93;;;;;;;9.15;100.00;101738.31;4931249;28;20062;-69
2021/10/25 07:15:52;;;;;;;28.08;14.73;;;;;;;9.21;100.00;101745.38;4931967;28;20791;-69
2021/10/25 07:18:24;;;;;;;23.85;14.45;;;;;;;9.21;100.00;101737.38;4930027;28;20151;-69
2021/10/25 08:08:25;;;;;;;24.48;12.95;;;;;;;9.37;100.00;101771.81;4930031;28;20551;-72
2021/10/25 08:10:57;;;;;;;29.50;15.68;;;;;;;9.38;100.00;101768.22;4928013;28;20058;-73
2021/10/25 08:13:30;;;;;;;31.45;16.38;;;;;;;9.41;100.00;101768.19;4927670;28;20137;-72
2021/10/25 08:15:58;;;;;;;30.70;16.80;;;;;;;9.41;100.00;101766.41;4931892;28;20042;-72
2021/10/25 08:18:40;;;;;;;35.65;17.70;;;;;;;9.45;100.00;101770.81;4930122;28;20063;-72
2021/10/25 08:21:10;;;;;;;32.38;17.02;;;;;;;9.42;100.00;101765.50;4933634;28;20046;-72
2021/10/25 08:23:40;;;;;;;32.08;18.83;;;;;;;9.42;100.00;101765.50;4930448;28;20071;-73
2021/10/25 08:26:09;;;;;;;31.40;17.98;;;;;;;9.46;100.00;101769.00;4934702;28;20102;-74
2021/10/25 08:28:37;;;;;;;35.60;19.42;;;;;;;9.47;100.00;101773.47;4930718;28;20118;-72
2021/10/25 08:31:06;;;;;;;33.50;18.08;;;;;;;9.50;100.00;101768.06;4929890;28;20079;-72
2021/10/25 08:39:45;;;;;;;37.22;19.98;;;;;;;9.58;100.00;101767.97;4877955;29;20139;-72
2021/10/25 08:42:01;;;;;;;36.83;19.23;;;;;;;9.58;100.00;101775.97;4927945;28;20130;-73
2021/10/25 08:44:29;;;;;;;35.60;19.48;;;;;;;9.51;100.00;101775.16;4930206;28;20131;-73
2021/10/25 08:46:58;;;;;;;37.53;20.38;;;;;;;9.49;100.00;101771.66;4932507;28;20058;-73
2021/10/25 08:49:28;;;;;;;34.05;18.42;;;;;;;9.62;100.00;101775.91;4928414;28;20831;-74
2021/10/25 08:51:59;;;;;;;37.92;20.45;;;;;;;9.65;100.00;101767.00;4931350;28;20062;-73
2021/10/25 08:54:27;;;;;;;41.75;21.38;;;;;;;9.67;100.00;101770.50;4927868;28;20058;-73
2021/10/25 08:56:58;;;;;;;40.50;20.80;;;;;;;9.72;100.00;101777.56;4929179;28;20563;-73
2021/10/25 08:59:28;;;;;;;34.55;19.48;;;;;;;9.71;100.00;101777.56;4929597;28;20062;-74
2021/10/25 09:02:04;;;;;;;44.53;21.52;;;;;;;9.70;100.00;101771.38;4929852;28;20761;-70
2021/10/25 09:04:32;;;;;;;45.08;20.95;;;;;;;9.78;100.00;101773.91;4929620;28;20148;-70
2021/10/25 09:07:02;;;;;;;41.05;21.02;;;;;;;9.83;100.00;101773.88;4934851;28;20043;-70
2021/10/25 09:09:31;;;;;;;45.03;24.15;;;;;;;9.79;100.00;101777.44;4930292;28;20051;-70
2021/10/25 09:12:03;;;;;;;43.40;22.73;;;;;;;9.82;100.00;101772.09;4933438;28;20047;-71
2021/10/25 09:14:33;;;;;;;45.55;23.65;;;;;;;9.85;100.00;101774.72;4936372;28;20047;-70
2021/10/25 09:17:04;;;;;;;47.38;23.52;;;;;;;9.88;100.00;101769.34;4931585;28;20129;-71
2021/10/25 09:19:33;;;;;;;45.83;23.20;;;;;;;9.91;100.00;101769.31;4933844;28;20239;-70
2021/10/25 09:22:08;;;;;;;42.70;22.85;;;;;;;9.96;100.00;101762.13;4939254;28;20055;-73
2021/10/25 09:24:36;;;;;;;49.08;24.13;;;;;;;10.00;100.00;101760.28;4933897;28;20048;-70
2021/10/25 09:27:07;;;;;;;48.03;23.80;;;;;;;9.99;100.00;101759.38;4934978;28;20043;-70
2021/10/25 09:29:40;;;;;;;48.20;24.35;;;;;;;10.07;100.00;101757.50;4933997;28;20141;-72
2021/10/25 09:32:12;;;;;;;48.92;24.58;;;;;;;10.07;100.00;101748.63;4933354;28;20106;-71
2021/10/25 09:34:46;;;;;;;50.85;24.60;;;;;;;10.15;100.00;101754.72;4932187;28;20051;-71
2021/10/25 09:37:17;;;;;;;52.05;26.00;;;;;;;10.14;100.00;101754.75;4935013;28;20051;-71
2021/10/25 09:39:50;;;;;;;49.08;25.52;;;;;;;10.21;100.00;101756.41;4935398;28;20407;-71
2021/10/25 09:50:42;;;;;;;51.28;25.88;;;;;;;10.25;100.00;101759.00;4936835;28;20087;-71
2021/10/25 09:53:15;;;;;;;61.90;28.75;;;;;;;10.26;100.00;101760.75;4927036;28;20063;-71
2021/10/25 09:55:44;;;;;;;58.05;28.02;;;;;;;10.25;100.00;101758.13;4933395;28;20118;-70
2021/10/25 09:58:20;;;;;;;63.92;29.08;;;;;;;10.27;100.00;101761.66;4932424;28;20082;-71
2021/10/25 10:00:48;;;;;;;59.13;28.17;;;;;;;10.29;100.00;101765.16;4934700;28;20043;-74
2021/10/25 10:03:16;;;;;;;56.25;27.80;;;;;;;10.28;100.00;101766.06;4933390;28;20501;-74
2021/10/25 10:05:44;;;;;;;56.22;26.48;;;;;;;10.30;100.00;101758.94;4932313;28;20054;-70
2021/10/25 10:08:13;;;;;;;58.70;29.15;;;;;;;10.34;100.00;101757.13;4935488;28;20063;-70
2021/10/25 10:10:43;;;;;;;65.80;29.33;;;;;;;10.38;100.00;101759.69;4932082;28;20055;-70
2021/10/25 10:13:14;;;;;;;60.97;30.77;;;;;;;10.39;100.00;101749.94;4932634;28;20178;-70
2021/10/25 10:15:43;;;;;;;62.75;29.77;;;;;;;10.43;100.00;101757.84;4932777;28;20138;-70
2021/10/25 10:18:16;;;;;;;58.50;29.23;;;;;;;10.48;100.00;101763.09;4938620;28;20055;-70
2021/10/25 10:20:48;;;;;;;63.65;31.50;;;;;;;10.50;100.00;101755.06;4933830;28;20529;-70
2021/10/25 10:23:19;;;;;;;62.45;31.63;;;;;;;10.53;100.00;101752.34;4934334;28;20067;-70
2021/10/25 10:25:54;;;;;;;64.15;30.05;;;;;;;10.55;100.00;101754.06;4931576;28;20063;-70
2021/10/25 10:28:37;;;;;;;57.83;27.75;;;;;;;10.50;100.00;101750.59;4933222;28;21009;-70
2021/10/25 10:31:10;;;;;;;65.72;30.55;;;;;;;10.53;100.00;101758.56;4935452;28;20065;-69
2021/10/25 10:33:40;;;;;;;62.88;29.85;;;;;;;10.51;100.00;101751.50;4931776;28;20149;-69
2021/10/25 10:36:14;;;;;;;60.30;27.60;;;;;;;10.65;100.00;101754.81;4934258;28;20058;-69
2021/10/25 10:38:47;;;;;;;64.05;30.77;;;;;;;10.59;100.00;101754.91;4932349;28;20059;-69
2021/10/25 10:41:20;;;;;;;54.63;27.95;;;;;;;10.65;100.00;101749.47;4930392;28;20055;-69
2021/10/25 10:43:57;;;;;;;66.43;29.25;;;;;;;10.71;100.00;101757.38;4930169;28;20191;-69
2021/10/25 10:46:26;;;;;;;60.78;31.58;;;;;;;10.72;100.00;101751.09;4927372;28;20078;-69
2021/10/25 10:48:57;;;;;;;59.72;28.65;;;;;;;10.84;100.00;101750.91;4931675;28;20055;-69
2021/10/25 10:51:30;;;;;;;68.15;28.88;;;;;;;10.76;100.00;101751.94;4929321;28;20059;-74
2021/10/25 10:54:09;;;;;;;58.85;30.52;;;;;;;10.82;100.00;101746.50;4930394;28;20141;-74
2021/10/25 10:56:42;;;;;;;61.78;29.88;;;;;;;10.86;100.00;101747.31;4936227;28;20055;-74
2021/10/25 10:59:30;;;;;;;56.95;27.88;;;;;;;10.92;100.00;101749.88;4934700;28;21388;-73
2021/10/25 11:01:58;;;;;;;61.92;28.67;;;;;;;10.98;100.00;101750.63;4930075;28;20139;-73
2021/10/25 11:04:31;;;;;;;58.22;30.77;;;;;;;10.99;100.00;101746.16;4931245;28;20072;-73
2021/10/25 11:07:00;;;;;;;58.45;28.45;;;;;;;11.04;100.00;101746.97;4929167;28;20736;-73
2021/10/25 11:09:31;;;;;;;61.00;29.90;;;;;;;11.10;100.00;101744.19;4931159;28;20055;-73
2021/10/25 11:12:07;;;;;;;58.03;28.13;;;;;;;11.08;100.00;101754.00;4929705;28;20542;-73
2021/10/25 11:14:39;;;;;;;58.35;29.08;;;;;;;11.20;100.00;101748.44;4932793;28;20063;-73
2021/10/25 11:17:16;;;;;;;53.55;25.80;;;;;;;11.19;100.00;101751.13;4938340;28;20047;-74
2021/10/25 11:19:55;;;;;;;48.03;24.95;;;;;;;11.16;100.00;101752.06;4930627;28;20058;-73
2021/10/25 11:22:27;;;;;;;49.22;26.75;;;;;;;11.10;100.00;101756.63;4937236;28;20110;-73
2021/10/25 11:24:56;;;;;;;58.47;27.90;;;;;;;11.12;100.00;101742.34;4938224;28;20166;-73
2021/10/25 11:27:31;;;;;;;58.15;27.27;;;;;;;11.17;100.00;101747.63;4931876;28;20134;-73
2021/10/25 11:30:12;;;;;;;57.50;26.88;;;;;;;11.14;100.00;101759.22;4929721;28;20200;-73
2021/10/25 11:32:42;;;;;;;57.97;29.45;;;;;;;11.14;100.00;101750.34;4932908;28;21104;-69
2021/10/25 11:35:13;;;;;;;52.58;26.65;;;;;;;11.14;100.00;101751.22;4930203;28;20435;-69
2021/10/25 11:37:49;;;;;;;43.63;22.00;;;;;;;11.11;100.00;101753.06;4934248;28;20078;-69
2021/10/25 11:40:22;;;;;;;41.20;21.63;;;;;;;11.12;100.00;101750.38;4931980;28;20424;-69
2021/10/25 11:42:51;;;;;;;38.53;21.70;;;;;;;11.08;100.00;101740.63;4930957;28;20068;-69
2021/10/25 11:45:23;;;;;;;40.72;21.13;;;;;;;11.11;100.00;101740.56;4930958;28;20479;-69
2021/10/25 11:47:52;;;;;;;40.40;22.27;;;;;;;11.11;100.00;101737.91;4930175;28;20061;-69
2021/10/25 11:50:22;;;;;;;44.13;21.85;;;;;;;11.11;100.00;101734.38;4930808;28;20740;-69
2021/10/25 11:52:54;;;;;;;41.30;21.85;;;;;;;11.08;100.00;101737.09;4929245;28;20106;-69
2021/10/25 11:55:25;;;;;;;41.90;22.27;;;;;;;11.06;100.00;101736.25;4934659;28;20051;-68
2021/10/25 11:57:56;;;;;;;41.75;21.75;;;;;;;11.17;100.00;101731.59;4928696;28;20095;-69
2021/10/25 12:00:27;;;;;;;40.70;21.20;;;;;;;11.17;100.00;101735.13;4933190;28;20079;-69
2021/10/25 12:02:56;;;;;;;44.92;21.83;;;;;;;11.16;100.00;101736.03;4931195;28;20058;-68
2021/10/25 12:05:26;;;;;;;42.45;21.10;;;;;;;11.18;100.00;101736.88;4930689;28;20055;-68
2021/10/25 12:07:56;;;;;;;39.10;20.30;;;;;;;11.20;100.00;101726.16;4930981;28;20059;-68
2021/10/25 12:10:26;;;;;;;44.65;21.70;;;;;;;11.17;100.00;101723.56;4935331;28;20134;-68
2021/10/25 12:12:59;;;;;;;41.15;21.95;;;;;;;11.24;100.00;101727.88;4929066;28;20046;-68
2021/10/25 12:15:29;;;;;;;43.65;22.70;;;;;;;11.24;100.00;101727.88;4927506;28;20055;-69
2021/10/25 12:17:59;;;;;;;44.40;21.48;;;;;;;11.20;100.00;101728.81;4933083;28;20054;-68
2021/10/25 12:20:30;;;;;;;39.00;20.38;;;;;;;11.15;100.00;101731.63;4926395;28;20074;-68
2021/10/25 12:23:19;;;;;;;37.65;20.73;;;;;;;11.26;100.00;101723.38;4929022;28;20487;-68
2021/10/25 12:25:54;;;;;;;42.70;20.65;;;;;;;11.15;100.00;101720.94;4927804;28;20052;-72
2021/10/25 12:28:24;;;;;;;37.78;19.67;;;;;;;11.27;100.00;101718.91;4931169;28;20138;-69
2021/10/25 12:31:06;;;;;;;38.28;20.17;;;;;;;11.24;100.00;101718.94;4932063;28;20122;-68
2021/10/25 12:33:35;;;;;;;40.25;20.15;;;;;;;11.24;100.00;101717.19;4930748;28;20043;-68
2021/10/25 12:36:13;;;;;;;40.33;20.85;;;;;;;11.25;100.00;101724.25;4932984;28;20187;-72
2021/10/25 12:38:42;;;;;;;38.25;19.75;;;;;;;11.23;100.00;101725.22;4931868;28;20055;-72
2021/10/25 12:41:10;;;;;;;40.28;20.42;;;;;;;11.25;100.00;101718.06;4931218;28;20059;-72
2021/10/25 12:43:41;;;;;;;38.90;20.05;;;;;;;11.29;100.00;101717.06;4929824;28;20082;-73